Terminal Aerodrome Forecast
Issued by NWS Pendleton, OR

Home | Current Version | Previous Version | Text Only | Print | Product List | Glossary On
Versions: 1 2 3 4 5 6 7 8 9 10 11 12 13 14 15 16
000
FTUS46 KPDT 280300 AAA
TAFPDT
TAF AMD
KPDT 280305Z 2803/2824 21011KT P6SM VCSH OVC050
     FM280600 19008KT P6SM -RA BKN035 OVC045
     FM281500 21012G22KT P6SM -SHRA OVC060
     FM281800 21018G28KT P6SM -SHRA OVC060=

USA.gov is the U.S. government's official web portal to all federal, state and local government web resources and services.